Time;durP1;ratioP1;P1;durP2;ratioP2;P2;SDS_P1;SDS_P2;PMS_P1;PMS_P2;Temp;Humidity;BMP_temperature;BMP_pressure;BME280_temperature;BME280_humidity;BME280_pressure;Samples;Min_cycle;Max_cycle;Signal;HPM_P1;HPM_P2
2021/09/03 00:01:34;;;;;;;18.23;9.90;;;15.90;99.90;;;;;;5000443;28;20231;-51
2021/09/03 00:04:02;;;;;;;15.73;9.07;;;15.90;99.90;;;;;;4997876;28;20655;-51
2021/09/03 00:06:29;;;;;;;13.23;8.87;;;15.90;99.90;;;;;;4992761;28;20365;-50
2021/09/03 00:08:56;;;;;;;13.80;8.90;;;16.00;99.90;;;;;;5009452;28;20236;-50
2021/09/03 00:11:23;;;;;;;18.97;9.53;;;15.90;99.90;;;;;;4997439;28;20726;-50
2021/09/03 00:13:49;;;;;;;18.50;9.80;;;15.70;99.90;;;;;;5001528;28;20630;-50
2021/09/03 00:16:18;;;;;;;17.87;9.33;;;15.80;99.90;;;;;;4994899;28;20231;-50
2021/09/03 00:18:46;;;;;;;15.03;9.30;;;15.80;99.90;;;;;;4996853;28;20295;-51
2021/09/03 00:21:14;;;;;;;14.27;9.47;;;15.60;99.90;;;;;;4996035;28;20266;-51
2021/09/03 00:23:41;;;;;;;14.10;9.70;;;15.60;99.90;;;;;;4993794;28;20800;-51
2021/09/03 00:26:07;;;;;;;18.90;10.17;;;15.70;99.90;;;;;;4998736;28;20254;-50
2021/09/03 00:28:34;;;;;;;13.37;9.53;;;15.70;99.90;;;;;;4997543;28;20372;-50
2021/09/03 00:31:01;;;;;;;19.23;10.00;;;15.60;99.90;;;;;;4996904;28;20714;-50
2021/09/03 00:33:28;;;;;;;15.83;10.50;;;15.50;99.90;;;;;;4994098;28;20318;-50
2021/09/03 00:35:55;;;;;;;17.37;9.60;;;15.50;99.90;;;;;;4995106;28;20560;-51
2021/09/03 00:38:22;;;;;;;16.10;10.07;;;15.60;99.90;;;;;;4994946;28;20300;-50
2021/09/03 00:40:48;;;;;;;18.23;9.77;;;15.50;99.90;;;;;;5008876;28;20194;-50
2021/09/03 00:43:15;;;;;;;16.43;10.03;;;15.40;99.90;;;;;;4995503;28;20210;-50
2021/09/03 00:45:42;;;;;;;21.63;10.20;;;15.30;99.90;;;;;;4997837;28;20578;-50
2021/09/03 00:48:09;;;;;;;17.33;9.83;;;15.40;99.90;;;;;;4999141;28;20223;-51
2021/09/03 00:50:36;;;;;;;19.87;9.43;;;15.30;99.90;;;;;;4998274;28;20224;-50
2021/09/03 00:53:04;;;;;;;19.13;9.83;;;15.30;99.90;;;;;;4994752;28;20290;-50
2021/09/03 00:55:31;;;;;;;18.53;9.70;;;15.20;99.90;;;;;;4996247;28;20572;-50
2021/09/03 00:57:58;;;;;;;16.20;10.10;;;15.30;99.90;;;;;;4997368;28;20212;-50
2021/09/03 01:00:24;;;;;;;18.43;10.13;;;15.30;99.90;;;;;;4999230;28;20298;-50
2021/09/03 01:02:51;;;;;;;18.60;9.90;;;15.40;99.90;;;;;;4993256;28;20230;-50
2021/09/03 01:05:22;;;;;;;19.07;9.33;;;15.30;99.90;;;;;;4997143;28;20602;-50
2021/09/03 01:07:51;;;;;;;13.70;9.60;;;15.30;99.90;;;;;;4997979;28;20242;-50
2021/09/03 01:10:20;;;;;;;18.00;9.67;;;15.30;99.90;;;;;;5012228;28;20635;-50
2021/09/03 01:12:48;;;;;;;16.50;9.53;;;15.30;99.90;;;;;;5002101;28;20562;-51
2021/09/03 01:15:17;;;;;;;14.40;9.37;;;15.50;99.90;;;;;;4998776;28;20202;-51
2021/09/03 01:17:44;;;;;;;17.57;10.53;;;15.40;99.90;;;;;;4997703;28;20194;-50
2021/09/03 01:20:12;;;;;;;18.33;9.63;;;15.40;99.90;;;;;;4998038;28;20206;-50
2021/09/03 01:22:39;;;;;;;13.53;10.03;;;15.30;99.90;;;;;;4997655;28;20207;-50
2021/09/03 01:25:08;;;;;;;18.20;9.83;;;15.30;99.90;;;;;;4996111;28;20326;-51
2021/09/03 01:27:35;;;;;;;17.77;10.40;;;15.20;99.90;;;;;;4995092;28;20319;-50
2021/09/03 01:30:04;;;;;;;15.07;10.17;;;15.30;99.90;;;;;;4996771;28;20273;-50
2021/09/03 01:32:30;;;;;;;17.93;9.87;;;15.30;99.90;;;;;;4997313;28;20305;-50
2021/09/03 01:34:57;;;;;;;15.83;9.67;;;15.30;99.90;;;;;;4999030;28;20767;-50
2021/09/03 01:37:24;;;;;;;16.03;10.63;;;15.20;99.90;;;;;;4998160;28;20325;-50
2021/09/03 01:39:51;;;;;;;20.40;10.13;;;15.30;99.90;;;;;;4996129;28;20296;-50
2021/09/03 01:42:17;;;;;;;17.00;9.63;;;15.30;99.90;;;;;;4998297;28;20289;-50
2021/09/03 01:44:44;;;;;;;14.57;10.00;;;15.20;99.90;;;;;;4997855;28;20253;-50
2021/09/03 01:47:11;;;;;;;17.93;10.40;;;15.30;99.90;;;;;;4993859;28;20317;-50
2021/09/03 01:49:38;;;;;;;20.27;10.33;;;15.40;99.90;;;;;;4996167;28;20545;-50
2021/09/03 01:52:05;;;;;;;16.87;10.43;;;15.40;99.90;;;;;;4996398;28;20659;-50
2021/09/03 01:54:32;;;;;;;18.90;9.40;;;15.40;99.90;;;;;;4994392;28;20683;-50
2021/09/03 01:56:59;;;;;;;15.33;10.73;;;15.50;99.90;;;;;;4994456;28;20205;-51
2021/09/03 01:59:26;;;;;;;15.37;9.90;;;15.40;99.90;;;;;;4997360;28;20796;-50
2021/09/03 02:01:53;;;;;;;20.70;10.27;;;15.20;99.90;;;;;;4993722;28;20393;-50
2021/09/03 02:04:20;;;;;;;15.67;9.70;;;15.30;99.90;;;;;;4995881;28;20294;-50
2021/09/03 02:06:47;;;;;;;17.37;10.60;;;15.20;99.90;;;;;;4996782;28;20257;-50
2021/09/03 02:09:14;;;;;;;18.67;10.03;;;15.20;99.90;;;;;;4996451;28;20309;-50
2021/09/03 02:11:41;;;;;;;18.97;10.50;;;15.10;99.90;;;;;;4994908;28;20289;-50
2021/09/03 02:14:08;;;;;;;21.67;10.70;;;15.10;99.90;;;;;;4995841;28;20271;-50
2021/09/03 02:16:35;;;;;;;19.03;9.83;;;15.10;99.90;;;;;;4995221;28;20655;-50
2021/09/03 02:19:02;;;;;;;18.77;10.67;;;15.10;99.90;;;;;;4992226;28;20246;-50
2021/09/03 02:21:29;;;;;;;17.90;10.60;;;15.20;99.90;;;;;;4996302;28;20463;-50
2021/09/03 02:23:56;;;;;;;18.63;9.83;;;15.10;99.90;;;;;;4995164;28;20218;-50
2021/09/03 02:26:23;;;;;;;14.97;9.03;;;15.20;99.90;;;;;;4992370;28;20213;-50
2021/09/03 02:28:49;;;;;;;15.70;10.20;;;15.30;99.90;;;;;;4995684;28;20295;-50
2021/09/03 02:31:16;;;;;;;18.13;10.70;;;15.20;99.90;;;;;;4995861;28;20754;-50
2021/09/03 02:33:43;;;;;;;17.40;10.13;;;15.20;99.90;;;;;;4995156;28;20797;-50
2021/09/03 02:36:11;;;;;;;21.57;9.73;;;15.10;99.90;;;;;;4998792;28;20237;-50
2021/09/03 02:38:38;;;;;;;17.93;9.80;;;15.20;99.90;;;;;;4994485;28;20290;-50
2021/09/03 02:41:04;;;;;;;19.87;10.33;;;15.20;99.90;;;;;;5001446;28;20874;-50
2021/09/03 02:43:31;;;;;;;17.97;10.83;;;15.20;99.90;;;;;;4998072;28;20297;-50
2021/09/03 02:45:58;;;;;;;16.50;10.27;;;15.10;99.90;;;;;;4999384;28;20241;-50
2021/09/03 02:48:25;;;;;;;14.97;9.67;;;15.00;99.90;;;;;;5001440;28;20548;-50
2021/09/03 02:50:51;;;;;;;17.70;10.20;;;14.90;99.90;;;;;;4997964;28;20281;-50
2021/09/03 02:53:18;;;;;;;18.30;9.87;;;15.00;99.90;;;;;;4999039;28;20917;-50
2021/09/03 02:55:45;;;;;;;15.73;10.50;;;15.10;99.90;;;;;;4994144;28;20721;-50
2021/09/03 02:58:12;;;;;;;19.70;10.50;;;15.00;99.90;;;;;;5001106;28;20346;-50
2021/09/03 03:00:38;;;;;;;16.03;9.90;;;14.90;99.90;;;;;;4998222;28;20287;-50
2021/09/03 03:03:07;;;;;;;19.43;10.87;;;14.90;99.90;;;;;;4997121;28;20204;-50
2021/09/03 03:05:34;;;;;;;19.37;11.37;;;14.80;99.90;;;;;;4997467;28;20210;-51
2021/09/03 03:08:01;;;;;;;16.60;10.53;;;14.80;99.90;;;;;;4997994;28;20279;-50
2021/09/03 03:10:28;;;;;;;14.47;10.07;;;14.80;99.90;;;;;;4997982;28;20293;-50
2021/09/03 03:12:55;;;;;;;20.63;11.20;;;14.70;99.90;;;;;;4999945;28;20537;-50
2021/09/03 03:15:22;;;;;;;18.37;10.37;;;14.70;99.90;;;;;;4998017;28;20657;-50
2021/09/03 03:17:50;;;;;;;18.33;10.30;;;14.70;99.90;;;;;;4992754;28;20733;-50
2021/09/03 03:20:17;;;;;;;22.97;12.03;;;14.80;99.90;;;;;;5001850;28;20673;-50
2021/09/03 03:22:46;;;;;;;19.70;11.23;;;14.70;99.90;;;;;;4999614;28;20287;-50
2021/09/03 03:25:13;;;;;;;20.53;12.00;;;14.70;99.90;;;;;;4996159;28;20313;-50
2021/09/03 03:27:40;;;;;;;20.17;11.00;;;14.70;99.90;;;;;;5001466;28;20242;-50
2021/09/03 03:30:18;;;;;;;16.00;10.87;;;14.80;99.90;;;;;;5000233;28;20527;-50
2021/09/03 03:32:45;;;;;;;22.27;10.73;;;14.90;99.90;;;;;;4998972;28;20303;-50
2021/09/03 03:35:11;;;;;;;20.03;11.70;;;14.90;99.90;;;;;;5000726;28;20281;-50
2021/09/03 03:37:38;;;;;;;15.53;10.90;;;14.80;99.90;;;;;;5000120;28;20588;-50
2021/09/03 03:40:05;;;;;;;17.97;10.60;;;14.80;99.90;;;;;;4993594;28;20689;-50
2021/09/03 03:42:32;;;;;;;20.57;11.57;;;14.90;99.90;;;;;;4999905;28;20267;-50
2021/09/03 03:44:59;;;;;;;18.73;10.57;;;14.90;99.90;;;;;;4998720;28;20288;-50
2021/09/03 03:47:26;;;;;;;19.57;11.20;;;14.80;99.90;;;;;;4996290;28;20222;-51
2021/09/03 03:49:53;;;;;;;18.60;11.47;;;14.90;99.90;;;;;;4994576;28;20198;-50
2021/09/03 03:52:20;;;;;;;17.27;12.10;;;14.80;99.90;;;;;;4999665;28;20611;-50
2021/09/03 03:54:47;;;;;;;21.87;11.50;;;14.80;99.90;;;;;;4994478;28;20314;-50
2021/09/03 03:57:13;;;;;;;20.23;11.03;;;14.80;99.90;;;;;;4997335;28;20600;-50
2021/09/03 03:59:40;;;;;;;20.83;11.63;;;14.90;99.90;;;;;;4995225;28;20210;-50
2021/09/03 04:02:08;;;;;;;18.73;11.43;;;14.80;99.90;;;;;;4997032;28;20694;-50
2021/09/03 04:04:35;;;;;;;24.13;12.53;;;14.80;99.90;;;;;;4998046;28;20652;-50
2021/09/03 04:07:02;;;;;;;18.50;11.60;;;14.70;99.90;;;;;;4999005;28;20244;-51
2021/09/03 04:09:29;;;;;;;17.10;11.70;;;14.70;99.90;;;;;;4996213;28;20260;-50
2021/09/03 04:11:55;;;;;;;20.37;11.70;;;14.80;99.90;;;;;;4998116;28;20361;-50
2021/09/03 04:14:22;;;;;;;18.60;12.43;;;14.70;99.90;;;;;;5001783;28;20202;-49
2021/09/03 04:16:49;;;;;;;18.00;12.17;;;14.70;99.90;;;;;;4998936;28;20558;-50
2021/09/03 04:19:16;;;;;;;20.37;11.80;;;14.50;99.90;;;;;;4997156;28;20248;-50
2021/09/03 04:21:42;;;;;;;19.73;11.07;;;14.60;99.90;;;;;;4998781;28;20254;-51
2021/09/03 04:24:09;;;;;;;18.73;12.03;;;14.50;99.90;;;;;;4995673;28;20202;-50
2021/09/03 04:26:36;;;;;;;21.87;12.43;;;14.40;99.90;;;;;;4998713;28;20281;-50
2021/09/03 04:29:03;;;;;;;17.17;11.50;;;14.50;99.90;;;;;;5001614;28;20216;-50
2021/09/03 04:31:29;;;;;;;19.13;11.90;;;14.50;99.90;;;;;;4995315;28;20256;-50
2021/09/03 04:33:56;;;;;;;21.37;11.67;;;14.60;99.90;;;;;;4999101;28;20205;-50
2021/09/03 04:36:23;;;;;;;21.97;11.13;;;14.50;99.90;;;;;;4996350;28;20301;-51
2021/09/03 04:38:50;;;;;;;22.63;12.07;;;14.50;99.90;;;;;;4995620;28;20232;-50
2021/09/03 04:41:17;;;;;;;20.57;11.67;;;14.40;99.90;;;;;;4996984;28;20676;-50
2021/09/03 04:43:43;;;;;;;19.30;12.10;;;14.40;99.90;;;;;;4996069;28;20245;-50
2021/09/03 04:46:10;;;;;;;24.40;13.53;;;14.40;99.90;;;;;;4999360;28;20335;-50
2021/09/03 04:48:37;;;;;;;20.33;12.13;;;14.50;99.90;;;;;;4997732;28;20218;-50
2021/09/03 04:51:04;;;;;;;23.80;12.93;;;14.40;99.90;;;;;;4998464;28;20612;-50
2021/09/03 04:53:31;;;;;;;24.03;12.03;;;14.50;99.90;;;;;;4997674;28;20671;-50
2021/09/03 04:55:57;;;;;;;19.83;12.80;;;14.30;99.90;;;;;;4995399;28;20605;-50
2021/09/03 04:58:24;;;;;;;19.97;12.97;;;14.20;99.90;;;;;;4996802;28;20196;-51
2021/09/03 05:00:51;;;;;;;22.33;12.47;;;14.20;99.90;;;;;;4996753;28;20628;-50
2021/09/03 05:03:18;;;;;;;23.10;13.27;;;14.10;99.90;;;;;;4990762;28;20264;-50
2021/09/03 05:05:45;;;;;;;23.20;13.63;;;14.20;99.90;;;;;;4998769;28;20636;-50
2021/09/03 05:08:11;;;;;;;18.80;11.97;;;14.10;99.90;;;;;;4999586;28;20587;-51
2021/09/03 05:10:38;;;;;;;19.00;12.13;;;14.10;99.90;;;;;;4996274;28;20293;-51
2021/09/03 05:13:05;;;;;;;19.50;13.13;;;14.10;99.90;;;;;;4994031;28;20213;-50
2021/09/03 05:15:38;;;;;;;22.77;12.20;;;14.00;99.90;;;;;;4997532;28;20797;-51
2021/09/03 05:18:05;;;;;;;19.53;13.60;;;14.10;99.90;;;;;;4994508;28;20222;-50
2021/09/03 05:20:32;;;;;;;19.03;12.87;;;14.10;99.90;;;;;;4997347;28;20617;-51
2021/09/03 05:22:59;;;;;;;25.00;12.50;;;14.00;99.90;;;;;;4998441;28;20614;-50
2021/09/03 05:25:26;;;;;;;22.13;13.10;;;14.10;99.90;;;;;;4994744;28;20340;-50
2021/09/03 05:27:53;;;;;;;25.23;12.60;;;14.20;99.90;;;;;;4999342;28;20405;-50
2021/09/03 05:30:20;;;;;;;24.03;12.80;;;14.10;99.90;;;;;;4990840;28;20698;-50
2021/09/03 05:32:47;;;;;;;23.03;12.17;;;14.00;99.90;;;;;;4992324;28;20614;-50
2021/09/03 05:35:14;;;;;;;21.53;13.23;;;14.00;99.90;;;;;;4996938;28;20284;-50
2021/09/03 05:37:41;;;;;;;21.97;13.30;;;13.90;99.90;;;;;;4998315;28;20721;-50
2021/09/03 05:40:09;;;;;;;21.33;12.93;;;14.00;99.90;;;;;;4996365;28;20279;-50
2021/09/03 05:42:35;;;;;;;21.00;12.83;;;14.00;99.90;;;;;;4998726;28;20240;-50
2021/09/03 05:45:03;;;;;;;22.53;13.67;;;14.00;99.90;;;;;;4998987;28;20208;-50
2021/09/03 05:47:30;;;;;;;26.63;14.07;;;14.00;99.90;;;;;;4996377;28;20622;-50
2021/09/03 05:49:57;;;;;;;24.73;14.53;;;14.10;99.90;;;;;;4997213;28;20229;-50
2021/09/03 05:52:24;;;;;;;22.03;13.70;;;14.10;99.90;;;;;;4999184;28;20232;-50
2021/09/03 05:54:51;;;;;;;27.73;14.77;;;14.10;99.90;;;;;;4993488;28;20331;-50
2021/09/03 05:57:18;;;;;;;22.53;14.27;;;14.10;99.90;;;;;;4999256;28;20289;-50
2021/09/03 05:59:44;;;;;;;21.80;13.47;;;14.10;99.90;;;;;;4995758;28;20211;-51
2021/09/03 06:02:11;;;;;;;23.57;13.73;;;14.10;99.90;;;;;;4987725;28;20205;-50
2021/09/03 06:04:38;;;;;;;27.33;14.17;;;14.10;99.90;;;;;;4996411;28;20435;-50
2021/09/03 06:07:05;;;;;;;24.20;13.73;;;14.10;99.90;;;;;;4992490;28;20253;-51
2021/09/03 06:09:32;;;;;;;23.47;14.00;;;14.20;99.90;;;;;;4990050;28;20263;-51
2021/09/03 06:11:59;;;;;;;22.13;13.73;;;14.30;99.90;;;;;;4993351;28;20583;-50
2021/09/03 06:14:26;;;;;;;24.33;13.57;;;14.30;99.90;;;;;;4994626;28;20724;-50
2021/09/03 06:16:53;;;;;;;22.30;13.50;;;14.20;99.90;;;;;;4997883;28;20212;-50
2021/09/03 06:19:20;;;;;;;34.27;14.83;;;14.20;99.90;;;;;;4993712;28;20725;-50
2021/09/03 06:21:48;;;;;;;22.97;14.03;;;14.30;99.90;;;;;;5015269;28;20296;-50
2021/09/03 06:24:27;;;;;;;26.97;14.70;;;14.30;99.90;;;;;;5000643;28;20355;-50
2021/09/03 06:27:00;;;;;;;22.67;14.23;;;14.40;99.90;;;;;;4999736;28;20245;-50
2021/09/03 06:29:40;;;;;;;25.70;15.20;;;14.30;99.90;;;;;;4997270;28;20251;-50
2021/09/03 06:32:12;;;;;;;26.93;14.37;;;14.30;99.90;;;;;;4996872;28;20254;-50
2021/09/03 06:34:44;;;;;;;24.77;15.07;;;14.30;99.90;;;;;;4998109;28;20205;-50
2021/09/03 06:37:11;;;;;;;22.93;14.87;;;14.50;99.90;;;;;;4998936;28;20245;-50
2021/09/03 06:39:39;;;;;;;30.47;16.13;;;14.60;99.90;;;;;;4996779;28;20708;-50
2021/09/03 06:42:07;;;;;;;27.67;15.37;;;14.70;99.90;;;;;;5002178;28;20292;-50
2021/09/03 06:44:34;;;;;;;31.33;15.50;;;14.90;99.90;;;;;;5001087;28;20219;-50
2021/09/03 06:47:01;;;;;;;29.03;16.23;;;14.90;99.90;;;;;;4999028;28;20296;-50
2021/09/03 06:49:29;;;;;;;28.67;15.23;;;14.80;99.90;;;;;;5007608;28;20594;-50
2021/09/03 06:51:56;;;;;;;23.27;14.33;;;15.00;99.90;;;;;;5001438;28;20213;-51
2021/09/03 06:54:23;;;;;;;23.13;14.73;;;15.10;99.90;;;;;;4994557;28;20219;-50
2021/09/03 06:56:50;;;;;;;22.70;15.13;;;15.00;99.90;;;;;;5000217;28;20331;-50
2021/09/03 06:59:17;;;;;;;22.00;14.67;;;14.90;99.90;;;;;;4996900;28;20297;-56
2021/09/03 07:01:44;;;;;;;64.43;21.03;;;15.00;99.90;;;;;;4998320;28;20289;-50
2021/09/03 07:04:11;;;;;;;25.53;16.20;;;15.00;99.90;;;;;;5000825;28;20630;-50
2021/09/03 07:06:37;;;;;;;26.50;15.87;;;15.10;99.90;;;;;;5001242;28;20204;-51
2021/09/03 07:09:05;;;;;;;27.90;15.20;;;15.30;99.90;;;;;;5003450;28;20244;-51
2021/09/03 07:11:33;;;;;;;26.33;15.77;;;15.30;99.90;;;;;;5000819;28;20194;-50
2021/09/03 07:14:02;;;;;;;24.67;16.23;;;15.40;99.90;;;;;;5001059;28;20205;-50
2021/09/03 07:16:29;;;;;;;22.90;15.67;;;15.60;99.90;;;;;;4999347;28;20229;-50
2021/09/03 07:18:56;;;;;;;24.03;14.43;;;15.70;99.90;;;;;;5000301;28;20204;-51
2021/09/03 07:21:23;;;;;;;26.67;15.83;;;15.70;99.90;;;;;;4994011;28;20296;-51
2021/09/03 07:23:51;;;;;;;27.03;15.17;;;15.90;99.90;;;;;;4994968;28;20257;-51
2021/09/03 07:26:18;;;;;;;26.97;15.60;;;16.00;99.90;;;;;;4994405;28;20317;-51
2021/09/03 07:28:45;;;;;;;26.10;15.67;;;15.90;99.90;;;;;;4997228;28;20317;-51
2021/09/03 07:31:12;;;;;;;21.30;14.20;;;15.90;99.90;;;;;;4994405;28;20295;-51
2021/09/03 07:33:39;;;;;;;25.83;16.03;;;16.40;99.90;;;;;;5013818;28;20201;-51
2021/09/03 07:36:06;;;;;;;23.50;15.43;;;16.50;99.90;;;;;;4996057;28;20207;-51
2021/09/03 07:38:34;;;;;;;24.37;15.03;;;16.70;99.90;;;;;;4995068;28;20293;-50
2021/09/03 07:41:01;;;;;;;30.13;15.47;;;16.90;99.90;;;;;;5000219;28;20242;-51
2021/09/03 07:43:28;;;;;;;24.60;15.60;;;16.90;99.90;;;;;;5000402;28;20227;-51
2021/09/03 07:45:58;;;;;;;27.97;15.13;;;16.90;99.90;;;;;;4999923;28;20218;-50
2021/09/03 07:48:25;;;;;;;19.10;14.07;;;17.10;99.90;;;;;;4998803;28;20221;-51
2021/09/03 07:50:52;;;;;;;24.50;13.87;;;17.40;99.90;;;;;;4994916;28;20378;-51
2021/09/03 07:53:19;;;;;;;22.70;14.20;;;17.60;43.30;;;;;;4996178;28;20207;-51
2021/09/03 07:55:47;;;;;;;21.53;13.87;;;17.70;1.00;;;;;;4994461;28;20382;-51
2021/09/03 07:58:14;;;;;;;23.13;12.40;;;17.70;1.00;;;;;;4993610;28;20687;-51
2021/09/03 08:00:41;;;;;;;22.33;13.17;;;17.90;1.00;;;;;;4999198;28;20369;-51
2021/09/03 08:03:08;;;;;;;20.67;14.10;;;17.80;1.00;;;;;;4997201;28;20199;-51
2021/09/03 08:05:36;;;;;;;24.77;14.83;;;18.10;1.00;;;;;;4998832;28;20250;-51
2021/09/03 08:08:04;;;;;;;21.40;13.37;;;18.20;99.90;;;;;;4994266;28;20326;-51
2021/09/03 08:10:32;;;;;;;18.60;14.07;;;18.40;26.10;;;;;;4996639;28;20326;-51
2021/09/03 08:13:04;;;;;;;28.67;16.03;;;18.60;1.00;;;;;;4995793;28;20371;-50
2021/09/03 08:15:32;;;;;;;45.87;16.83;;;18.60;1.00;;;;;;5002351;28;20217;-50
2021/09/03 08:17:59;;;;;;;27.17;16.00;;;18.60;99.90;;;;;;4997772;28;20297;-50
2021/09/03 08:20:27;;;;;;;26.27;16.60;;;18.70;67.40;;;;;;4990653;28;20581;-50
2021/09/03 08:22:53;;;;;;;26.43;16.60;;;18.40;99.90;;;;;;4968066;28;20213;-50
2021/09/03 08:25:21;;;;;;;22.90;15.80;;;18.40;99.90;;;;;;4989877;28;20268;-50
2021/09/03 08:27:49;;;;;;;23.93;16.33;;;18.60;99.90;;;;;;4984810;28;20252;-50
2021/09/03 08:30:18;;;;;;;24.17;15.30;;;18.80;1.00;;;;;;4988856;28;20305;-51
2021/09/03 08:32:46;;;;;;;25.77;15.43;;;19.00;99.90;;;;;;4992593;28;20240;-51
2021/09/03 08:35:13;;;;;;;25.40;15.37;;;19.30;99.90;;;;;;4991892;28;20287;-51
2021/09/03 08:37:40;;;;;;;24.63;15.67;;;19.50;1.00;;;;;;4989972;28;20320;-51
2021/09/03 08:40:11;;;;;;;23.63;15.87;;;19.60;35.20;;;;;;4992834;28;20285;-50
2021/09/03 08:42:39;;;;;;;26.90;15.60;;;19.70;1.00;;;;;;4995659;28;20297;-51
2021/09/03 08:45:09;;;;;;;22.17;14.57;;;19.80;99.90;;;;;;4990497;28;20282;-51
2021/09/03 08:47:40;;;;;;;24.43;15.73;;;20.30;40.10;;;;;;4994664;28;20310;-51
2021/09/03 08:50:10;;;;;;;31.50;16.13;;;20.60;1.00;;;;;;4991860;28;20316;-51
2021/09/03 08:52:41;;;;;;;26.80;14.83;;;20.40;1.00;;;;;;4992347;28;20313;-51
2021/09/03 08:55:08;;;;;;;22.83;16.00;;;20.60;1.00;;;;;;4989842;28;20293;-50
2021/09/03 08:57:36;;;;;;;22.23;15.27;;;20.70;1.00;;;;;;4994347;28;20293;-51
2021/09/03 09:00:11;;;;;;;24.37;15.60;;;20.80;99.90;;;;;;4991097;28;20235;-51
2021/09/03 09:03:00;;;;;;;24.20;13.83;;;21.10;1.00;;;;;;4992395;28;20315;-51
2021/09/03 09:05:50;;;;;;;21.60;14.07;;;21.00;1.00;;;;;;4990694;28;20595;-51
2021/09/03 09:08:19;;;;;;;22.10;15.77;;;21.10;99.90;;;;;;4993454;28;20276;-51
2021/09/03 09:11:03;;;;;;;24.67;15.83;;;21.20;99.90;;;;;;4995942;28;20768;-51
2021/09/03 09:13:36;;;;;;;22.43;15.60;;;21.20;1.00;;;;;;4992690;28;20664;-50
2021/09/03 09:16:06;;;;;;;23.03;15.33;;;21.30;1.00;;;;;;4991402;28;20231;-51
2021/09/03 09:18:43;;;;;;;23.80;14.03;;;21.60;1.00;;;;;;4988448;28;20339;-51
2021/09/03 09:21:17;;;;;;;22.10;14.93;;;21.80;99.90;;;;;;4993554;28;20250;-51
2021/09/03 09:24:04;;;;;;;23.97;14.67;;;21.90;1.00;;;;;;4992016;28;20314;-50
2021/09/03 09:26:44;;;;;;;26.60;14.63;;;21.90;1.00;;;;;;4991892;28;20204;-51
2021/09/03 09:29:36;;;;;;;20.80;13.70;;;21.00;1.00;;;;;;4989752;28;20212;-51
2021/09/03 09:32:06;;;;;;;20.33;13.57;;;20.80;1.00;;;;;;4994344;28;20287;-50
2021/09/03 09:34:38;;;;;;;20.20;13.40;;;21.10;99.90;;;;;;4997255;28;20679;-50
2021/09/03 09:37:10;;;;;;;19.63;13.60;;;21.40;99.90;;;;;;4995176;28;20616;-50
2021/09/03 09:39:46;;;;;;;19.80;12.70;;;22.00;1.00;;;;;;4989097;28;20213;-50
2021/09/03 09:42:23;;;;;;;18.23;13.17;;;22.00;1.00;;;;;;4993667;28;20293;-51
2021/09/03 09:45:08;;;;;;;15.50;11.63;;;22.20;1.00;;;;;;4991272;28;20236;-51
2021/09/03 09:47:36;;;;;;;17.40;11.67;;;22.20;1.00;;;;;;4991303;28;20205;-51
2021/09/03 09:50:42;;;;;;;20.13;12.63;;;22.50;1.00;;;;;;4995822;28;20324;-51
2021/09/03 09:53:11;;;;;;;17.03;11.93;;;22.40;1.00;;;;;;4954965;28;20218;-51
2021/09/03 09:55:38;;;;;;;18.67;11.63;;;22.30;1.00;;;;;;4951035;28;20199;-51
2021/09/03 09:58:06;;;;;;;18.67;12.07;;;22.30;1.00;;;;;;4951537;28;20204;-51
2021/09/03 10:00:35;;;;;;;17.13;11.40;;;22.30;1.00;;;;;;4951455;28;21185;-51
2021/09/03 10:03:03;;;;;;;19.40;12.17;;;22.50;92.20;;;;;;4953967;28;20201;-51
2021/09/03 10:05:32;;;;;;;15.47;11.43;;;22.40;1.00;;;;;;4956334;28;20590;-51
2021/09/03 10:07:59;;;;;;;17.83;10.50;;;22.00;1.00;;;;;;4956069;28;20253;-51
2021/09/03 10:10:27;;;;;;;16.93;11.63;;;22.20;1.00;;;;;;4955494;28;20277;-50
2021/09/03 10:12:54;;;;;;;14.80;11.00;;;22.20;1.00;;;;;;4958177;28;20659;-50
2021/09/03 10:15:21;;;;;;;22.37;12.07;;;22.20;99.90;;;;;;4957869;28;20222;-51
2021/09/03 10:17:48;;;;;;;15.73;11.67;;;22.30;1.00;;;;;;4958813;28;20266;-51
2021/09/03 10:20:16;;;;;;;17.50;10.67;;;21.90;99.90;;;;;;4962047;28;20298;-51
2021/09/03 10:22:46;;;;;;;14.30;11.10;;;22.20;99.90;;;;;;4964210;28;20293;-51
2021/09/03 10:25:13;;;;;;;16.77;10.83;;;22.10;1.00;;;;;;5001258;28;20213;-51
2021/09/03 10:27:40;;;;;;;15.40;10.97;;;22.00;1.00;;;;;;4999592;28;20331;-51
2021/09/03 10:30:15;;;;;;;18.27;11.03;;;22.10;1.00;;;;;;4997144;28;20297;-51
2021/09/03 10:32:42;;;;;;;15.23;11.07;;;22.10;1.00;;;;;;4991252;28;20256;-51
2021/09/03 10:35:17;;;;;;;18.07;9.90;;;22.10;99.90;;;;;;5002840;28;20646;-51
2021/09/03 10:37:45;;;;;;;18.83;11.70;;;22.10;99.90;;;;;;4998820;28;20284;-51
2021/09/03 10:40:33;;;;;;;17.93;10.67;;;22.10;99.90;;;;;;4999342;28;20324;-50
2021/09/03 10:43:00;;;;;;;14.50;10.10;;;22.20;99.90;;;;;;4994395;28;20205;-51
2021/09/03 10:45:34;;;;;;;15.70;10.40;;;22.30;1.00;;;;;;4990102;28;20634;-51
2021/09/03 10:48:07;;;;;;;15.80;10.37;;;22.50;1.00;;;;;;4995982;28;20299;-56
2021/09/03 10:50:43;;;;;;;14.17;9.50;;;22.40;1.00;;;;;;4994645;28;20217;-57
2021/09/03 10:53:10;;;;;;;14.27;9.57;;;22.70;1.00;;;;;;4998437;28;20243;-57
2021/09/03 10:55:55;;;;;;;12.03;9.07;;;22.30;1.00;;;;;;4992573;28;20283;-51
2021/09/03 10:58:45;;;;;;;16.10;9.60;;;22.50;1.00;;;;;;4990774;28;20201;-51
2021/09/03 11:01:12;;;;;;;12.20;8.67;;;22.60;1.00;;;;;;4993614;28;20284;-51
2021/09/03 11:03:58;;;;;;;15.40;8.83;;;22.90;99.90;;;;;;4993270;28;20317;-51
2021/09/03 11:06:24;;;;;;;12.50;7.80;;;22.90;99.90;;;;;;4993103;28;20301;-50
2021/09/03 11:08:58;;;;;;;11.00;6.73;;;22.80;1.00;;;;;;4988601;28;20312;-51
2021/09/03 11:11:30;;;;;;;13.50;9.13;;;23.10;99.90;;;;;;4998644;28;20646;-50
2021/09/03 11:14:03;;;;;;;17.27;8.20;;;23.30;1.00;;;;;;4992572;28;20610;-50
2021/09/03 11:16:54;;;;;;;12.37;8.67;;;23.50;99.90;;;;;;5000076;28;20198;-50
2021/09/03 11:19:31;;;;;;;11.07;7.93;;;23.50;1.00;;;;;;4995826;28;21161;-50
2021/09/03 11:22:07;;;;;;;13.53;7.90;;;23.50;1.00;;;;;;4996989;28;20605;-50
2021/09/03 11:24:38;;;;;;;12.73;6.30;;;23.50;1.00;;;;;;4992658;28;20297;-50
2021/09/03 11:27:08;;;;;;;13.30;8.27;;;23.80;1.00;;;;;;4998145;28;20292;-50
2021/09/03 11:29:42;;;;;;;12.70;6.90;;;23.80;1.00;;;;;;4992546;28;20313;-51
2021/09/03 11:32:21;;;;;;;10.73;6.67;;;24.00;99.90;;;;;;5008303;28;20401;-50
2021/09/03 11:35:10;;;;;;;12.90;6.73;;;24.20;99.90;;;;;;4994493;28;20584;-51
2021/09/03 11:37:49;;;;;;;13.73;6.23;;;24.10;99.90;;;;;;4994397;28;20208;-51
2021/09/03 11:40:27;;;;;;;11.80;6.63;;;24.40;99.90;;;;;;4990352;28;20251;-51
2021/09/03 11:43:02;;;;;;;9.20;6.50;;;24.30;99.90;;;;;;4999846;28;20249;-50
2021/09/03 11:45:38;;;;;;;7.50;5.47;;;24.50;99.90;;;;;;4995442;28;20367;-57
2021/09/03 11:48:14;;;;;;;9.27;6.20;;;24.70;99.90;;;;;;4999196;28;20299;-51
2021/09/03 11:50:49;;;;;;;10.40;7.90;;;24.60;99.90;;;;;;4997893;28;20750;-50
2021/09/03 11:53:18;;;;;;;12.80;6.07;;;24.60;99.90;;;;;;4993498;28;20227;-50
2021/09/03 11:55:48;;;;;;;12.10;7.17;;;25.00;99.90;;;;;;4996502;28;20228;-51
2021/09/03 11:58:18;;;;;;;7.37;6.20;;;25.30;56.50;;;;;;4996261;28;20255;-50
2021/09/03 12:00:50;;;;;;;9.50;6.23;;;25.80;1.00;;;;;;4996517;28;20336;-50
2021/09/03 12:03:29;;;;;;;12.33;5.83;;;26.10;1.00;;;;;;4992035;28;20318;-51
2021/09/03 12:05:59;;;;;;;8.37;5.53;;;26.30;1.00;;;;;;4990601;28;20244;-50
2021/09/03 12:08:30;;;;;;;9.90;6.20;;;25.90;1.00;;;;;;4991001;28;20376;-51
2021/09/03 12:10:59;;;;;;;9.13;6.40;;;26.00;1.00;;;;;;4995483;28;20256;-50
2021/09/03 12:13:36;;;;;;;9.33;5.67;;;26.00;1.00;;;;;;5000061;28;20248;-50
2021/09/03 12:16:16;;;;;;;9.90;5.83;;;26.50;1.00;;;;;;5001173;28;20274;-50
2021/09/03 12:18:45;;;;;;;10.70;5.90;;;26.60;1.00;;;;;;5007749;28;20206;-50
2021/09/03 12:21:24;;;;;;;7.37;5.60;;;27.00;1.00;;;;;;4992936;28;20306;-51
2021/09/03 12:23:54;;;;;;;9.57;5.87;;;26.60;1.00;;;;;;4994966;28;20241;-50
2021/09/03 12:26:23;;;;;;;9.07;7.27;;;26.90;1.00;;;;;;5002489;28;20201;-50
2021/09/03 12:28:55;;;;;;;7.33;6.10;;;26.10;1.00;;;;;;4999550;28;20262;-50
2021/09/03 12:31:28;;;;;;;8.93;6.03;;;26.50;1.00;;;;;;4997201;28;20222;-50
2021/09/03 12:33:57;;;;;;;9.20;6.60;;;26.50;1.00;;;;;;4998441;28;20613;-51
2021/09/03 12:36:29;;;;;;;11.03;5.63;;;26.50;1.00;;;;;;4994227;28;20247;-50
2021/09/03 12:39:03;;;;;;;7.53;5.60;;;26.60;1.00;;;;;;4997640;28;20295;-51
2021/09/03 12:41:32;;;;;;;7.50;5.47;;;26.80;1.00;;;;;;4992563;28;20193;-50
2021/09/03 12:44:07;;;;;;;9.80;5.97;;;26.90;1.00;;;;;;5000166;28;20734;-51